Latest Weather Observations for Ceduna

IDS60801

Issued at 4:11 pm CST Saturday 4 July 2020 (issued every 10 minutes, with the page automatically refreshed every 10 minutes)

About weather observations | Map of weather stations | Latest weather observations for SA | Other Formats
Station Details ID: 018012 Name: CEDUNA AMO Lat: -32.13 Lon: 133.70 Height: 15.3 m
Data from the previous 72 hours. | See also: Recent months at Ceduna
Date/Time
CST
Temp
°C
App
Temp
°C
Dew
Point
°C
Rel
Hum
%
Delta-T
°C
Wind Press
QNH
hPa
Press
MSL
hPa
Rain since
9am
mm
Dir  Spd
km/h
Gust
km/h
Spd
kts
Gust
kts
04/04:00pm 14.0 10.1 8.8 71 2.6 SW 19 22 10 12 1032.3 1032.3 0.0
04/03:30pm 14.4 11.2 8.4 67 3.0 SW 15 20 8 11 1032.4 1032.4 0.0
04/03:00pm 14.5 10.9 8.5 67 3.0 SW 17 20 9 11 1032.6 1032.6 0.0
04/02:30pm 14.2 10.6 8.4 68 2.9 SW 17 22 9 12 1032.8 1032.8 0.0
04/02:00pm 13.9 10.5 9.1 73 2.4 SW 17 22 9 12 1033.0 1033.0 0.0
04/01:30pm 14.6 11.7 9.6 72 2.6 SW 15 19 8 10 1033.3 1033.3 0.0
04/01:00pm 14.1 12.2 8.9 71 2.6 SSW 9 13 5 7 1033.7 1033.7 0.0
04/12:30pm 14.1 12.5 8.7 70 2.7 ENE 7 11 4 6 1034.1 1034.1 0.0
04/12:00pm 14.1 12.1 8.7 70 2.7 ENE 9 15 5 8 1034.4 1034.4 0.0
04/11:30am 13.8 11.8 8.8 72 2.5 E 9 19 5 10 1034.9 1034.9 0.0
04/11:00am 13.4 11.1 8.9 74 2.3 ENE 11 15 6 8 1035.1 1035.1 0.0
04/10:30am 13.1 10.5 9.4 78 1.9 NE 13 17 7 9 1035.1 1035.1 0.0
04/10:00am 12.4 9.2 8.5 77 1.9 ENE 15 17 8 9 1034.8 1034.8 0.0
04/09:30am 11.8 9.2 9.4 85 1.2 ENE 13 17 7 9 1034.4 1034.4 0.0
04/09:00am 10.9 8.7 9.3 90 0.8 ENE 11 13 6 7 1034.0 1034.0 3.6
04/08:30am 10.2 8.0 9.3 94 0.4 E 11 17 6 9 1033.5 1033.5 3.6
04/08:00am 9.7 8.2 9.1 96 0.3 E 7 9 4 5 1033.4 1033.4 3.6
04/07:30am 9.5 7.9 8.9 96 0.3 E 7 9 4 5 1033.2 1033.2 3.6
04/07:00am 9.4 8.0 8.9 97 0.2 E 6 9 3 5 1033.0 1033.0 3.6
04/06:30am 9.4 7.8 8.9 97 0.2 E 7 9 4 5 1032.8 1032.8 3.6
04/06:00am 9.1 8.8 8.8 98 0.1 CALM 0 0 0 0 1032.4 1032.4 3.6
04/05:30am 9.0 8.3 8.7 98 0.1 E 2 7 1 4 1032.2 1032.2 3.6
04/05:00am 8.7 8.3 8.4 98 0.1 CALM 0 0 0 0 1032.1 1032.1 3.6
04/04:30am 8.4 8.0 8.1 98 0.1 CALM 0 0 0 0 1032.4 1032.4 3.6
04/04:00am 8.2 7.7 7.9 98 0.1 CALM 0 0 0 0 1032.6 1032.6 3.6
04/03:30am 7.6 7.0 7.3 98 0.1 CALM 0 4 0 2 1032.9 1032.9 3.6
04/03:00am 7.2 5.3 6.9 98 0.1 E 6 7 3 4 1032.8 1032.8 3.6
04/02:30am 7.7 6.3 7.4 98 0.1 ESE 4 15 2 8 1033.1 1033.1 3.6
04/02:25am 7.6 6.2 7.3 98 0.1 SSE 4 15 2 8 1033.1 1033.1 3.6
04/02:00am 8.3 7.1 8.0 98 0.1 SSE 4 6 2 3 1033.1 1033.1 3.6
04/01:30am 8.8 7.3 8.4 97 0.2 SSE 6 7 3 4 1033.1 1033.1 3.6
04/01:21am 8.9 7.4 8.5 97 0.2 SSE 6 6 3 3 1033.1 1033.1 3.6
04/01:00am 9.5 8.1 9.0 97 0.2 SSE 6 9 3 5 1033.0 1033.0 3.6
04/12:30am 9.8 8.5 9.3 97 0.2 SSE 6 9 3 5 1032.9 1032.9 3.6
04/12:00am 9.6 9.0 9.1 97 0.2 SSE 2 7 1 4 1032.8 1032.8 3.6
 
Date/Time
CST
Temp
°C
App
Temp
°C
Dew
Point
°C
Rel
Hum
%
Delta-T
°C
Wind Press
QNH
hPa
Press
MSL
hPa
Rain since
9am
mm
Dir  Spd
km/h
Gust
km/h
Spd
kts
Gust
kts
03/11:30pm 9.2 8.5 8.7 97 0.2 SSE 2 7 1 4 1032.9 1032.9 3.6
03/11:00pm 8.3 6.4 7.7 96 0.3 SSE 7 7 4 4 1033.0 1033.0 3.6
03/10:30pm 9.2 7.5 8.4 95 0.4 SSE 7 9 4 5 1032.9 1032.9 3.6
03/10:00pm 10.5 9.4 9.9 96 0.3 SSE 6 9 3 5 1033.0 1033.0 3.6
03/09:30pm 8.4 6.1 7.6 95 0.4 SSE 9 11 5 6 1032.8 1032.8 3.6
03/09:00pm 9.3 6.8 8.2 93 0.5 SSE 11 13 6 7 1032.5 1032.5 3.6
03/08:30pm 11.0 8.9 9.8 92 0.6 SSE 11 13 6 7 1032.4 1032.4 3.6
03/08:00pm 12.7 11.4 11.4 92 0.7 S 9 13 5 7 1032.0 1032.0 3.6
03/07:30pm 12.9 10.8 11.3 90 0.8 SSW 13 15 7 8 1031.8 1031.8 3.6
03/07:00pm 12.6 11.2 10.8 89 0.9 SSW 9 11 5 6 1031.6 1031.6 3.6
03/06:30pm 12.6 11.5 10.8 89 0.9 SSW 7 7 4 4 1031.3 1031.3 3.6
03/06:00pm 13.0 11.7 11.2 89 0.9 SSW 9 13 5 7 1031.0 1031.0 3.6
03/05:30pm 13.5 12.2 11.4 87 1.1 S 9 13 5 7 1030.8 1030.8 3.6
03/05:00pm 14.1 11.8 11.6 85 1.3 S 15 17 8 9 1030.5 1030.5 3.6
03/04:30pm 14.7 11.7 11.8 83 1.6 S 19 26 10 14 1030.2 1030.2 3.6
03/04:00pm 15.4 12.5 12.2 81 1.7 SSW 19 24 10 13 1030.2 1030.2 3.6
03/03:30pm 15.6 12.3 11.6 77 2.1 SSW 20 26 11 14 1030.1 1030.1 3.6
03/03:00pm 15.7 11.7 11.9 78 2.0 SSW 24 32 13 17 1030.1 1030.1 3.6
03/02:30pm 15.8 12.2 12.0 78 2.1 SSW 22 30 12 16 1029.9 1029.9 3.6
03/02:00pm 16.4 13.5 12.4 77 2.2 SSW 19 26 10 14 1029.9 1029.9 3.6
03/01:30pm 16.4 13.4 12.6 78 2.1 SW 20 26 11 14 1029.9 1029.9 3.6
03/01:00pm 16.4 13.8 13.1 81 1.8 WSW 19 24 10 13 1030.2 1030.2 3.6
03/12:30pm 15.1 13.3 13.3 89 1.0 W 15 20 8 11 1030.6 1030.6 3.6
03/12:00pm 14.8 12.6 13.3 91 0.8 W 17 22 9 12 1030.8 1030.8 3.6
03/11:30am 14.3 12.1 13.2 93 0.6 W 17 20 9 11 1031.0 1031.0 3.6
03/11:11am 13.5 12.3 12.9 96 0.3 WNW 11 13 6 7 1031.0 1031.0 3.4
03/11:00am 12.6 11.5 11.8 95 0.4 WNW 9 17 5 9 1031.0 1031.0 3.4
03/10:50am 12.7 10.4 11.9 95 0.4 WNW 15 20 8 11 1031.0 1031.0 2.4
03/10:30am 13.0 11.3 12.5 97 0.3 WNW 13 17 7 9 1030.8 1030.8 1.4
03/10:08am 11.7 9.6 11.2 97 0.3 NW 13 17 7 9 1030.6 1030.6 1.4
03/10:00am 11.6 9.5 11.3 98 0.2 WNW 13 17 7 9 1030.6 1030.6 1.4
03/09:54am 11.2 9.0 10.7 97 0.3 WNW 13 17 7 9 1030.5 1030.5 1.4
03/09:30am 11.3 8.4 11.0 98 0.2 NW 17 22 9 12 1030.0 1030.0 0.4
03/09:22am 10.5 7.7 10.0 97 0.3 NW 15 19 8 10 1029.9 1029.9 0.4
03/09:12am 10.5 7.7 10.0 97 0.3 WNW 15 19 8 10 1029.8 1029.8 0.4
03/09:00am 10.1 8.0 9.8 98 0.1 NW 11 17 6 9 1029.5 1029.5 2.2
03/08:30am 8.8 6.8 8.5 98 0.1 NW 9 13 5 7 1029.0 1029.0 1.6
03/08:00am 7.8 5.5 7.5 98 0.1 NW 9 17 5 9 1028.7 1028.7 1.6
03/07:30am 7.4 4.6 7.1 98 0.1 NNW 11 13 6 7 1028.2 1028.2 1.6
03/07:00am 7.0 4.1 6.7 98 0.1 NNW 11 13 6 7 1027.8 1027.8 1.6
03/06:30am 8.1 5.1 7.8 98 0.1 NW 13 17 7 9 1027.3 1027.3 1.6
03/06:00am 8.4 5.9 8.1 98 0.1 NW 11 15 6 8 1026.9 1026.9 1.6
03/05:30am 8.4 5.5 8.1 98 0.1 NW 13 17 7 9 1026.6 1026.6 1.6
03/05:00am 8.6 6.1 8.3 98 0.1 NW 11 13 6 7 1026.5 1026.5 1.6
03/04:30am 9.1 6.4 8.8 98 0.1 NW 13 15 7 8 1026.6 1026.6 1.6
03/04:00am 8.9 6.1 8.5 97 0.2 NW 13 17 7 9 1026.6 1026.6 1.6
03/03:30am 9.4 6.7 9.1 98 0.1 NW 13 15 7 8 1026.7 1026.7 1.6
03/03:00am 8.9 6.5 8.5 97 0.2 NW 11 13 6 7 1026.7 1026.7 1.6
03/02:30am 9.3 6.6 8.8 97 0.2 NW 13 17 7 9 1026.6 1026.6 1.2
03/02:00am 9.1 6.7 8.6 97 0.2 NW 11 15 6 8 1026.3 1026.3 1.2
03/01:30am 9.1 7.1 8.5 96 0.3 NW 9 9 5 5 1026.1 1026.1 1.2
03/01:00am 9.9 8.1 9.4 97 0.2 NW 9 13 5 7 1026.1 1026.1 1.2
03/12:30am 9.8 6.8 9.2 96 0.3 NW 15 19 8 10 1026.2 1026.2 1.2
03/12:00am 10.1 7.5 9.5 96 0.3 NW 13 15 7 8 1026.1 1026.1 1.0
 
Date/Time
CST
Temp
°C
App
Temp
°C
Dew
Point
°C
Rel
Hum
%
Delta-T
°C
Wind Press
QNH
hPa
Press
MSL
hPa
Rain since
9am
mm
Dir  Spd
km/h
Gust
km/h
Spd
kts
Gust
kts
02/11:45pm 10.6 8.2 10.0 96 0.3 NW 13 20 7 11 1026.1 1026.1 1.0
02/11:30pm 10.8 8.4 10.2 96 0.3 W 13 19 7 10 1026.1 1026.1 0.8
02/11:00pm 10.5 8.1 9.9 96 0.3 NW 13 19 7 10 1025.8 1025.8 0.4
02/10:30pm 9.6 7.7 9.0 96 0.3 NW 9 13 5 7 1025.7 1025.7 0.4
02/10:00pm 10.2 8.0 9.3 94 0.4 NW 11 15 6 8 1025.6 1025.6 0.4
02/09:51pm 10.7 8.2 9.8 94 0.5 NW 13 17 7 9 1025.5 1025.5 0.4
02/09:40pm 11.1 8.7 10.2 94 0.5 WNW 13 17 7 9 1025.5 1025.5 0.4
02/09:30pm 10.7 8.2 9.8 94 0.5 NW 13 19 7 10 1025.5 1025.5 0.2
02/09:00pm 11.2 8.9 10.3 94 0.5 NW 13 19 7 10 1025.0 1025.0 0.2
02/08:30pm 11.2 8.7 9.8 91 0.7 NW 13 17 7 9 1024.9 1024.9 0.2
02/08:00pm 11.9 8.7 9.8 87 1.1 WNW 17 24 9 13 1024.5 1024.5 0.2
02/07:30pm 11.8 9.7 9.9 88 1.0 NW 11 15 6 8 1024.1 1024.1 0.2
02/07:00pm 12.5 9.8 10.2 86 1.2 WNW 15 20 8 11 1023.9 1023.9 0.2
02/06:30pm 12.6 10.1 9.6 82 1.5 WNW 13 17 7 9 1023.6 1023.6 0.2
02/06:00pm 12.5 9.8 8.8 78 1.8 NW 13 17 7 9 1023.2 1023.2 0.2
02/05:30pm 13.3 9.0 9.2 76 2.1 WNW 22 30 12 16 1023.0 1023.0 0.2
02/05:00pm 13.4 9.9 10.2 81 1.7 WSW 19 24 10 13 1022.9 1022.9 0.2
02/04:30pm 14.2 10.0 9.8 75 2.3 WSW 22 28 12 15 1022.4 1022.4 0.2
02/04:00pm 14.7 11.6 10.3 75 2.3 SW 17 20 9 11 1022.3 1022.3 0.2
02/03:30pm 15.3 11.4 10.9 75 2.3 SW 22 28 12 15 1022.2 1022.2 0.2
02/03:00pm 15.3 11.6 10.1 71 2.7 SW 20 30 11 16 1022.1 1022.1 0.2
02/02:30pm 14.6 11.8 8.5 67 3.1 W 13 17 7 9 1022.0 1022.0 0.2
02/02:00pm 15.8 12.7 9.0 64 3.5 WNW 15 20 8 11 1022.2 1022.2 0.2
02/01:30pm 14.6 10.7 9.4 71 2.7 WSW 20 32 11 17 1022.3 1022.3 0.2
02/01:00pm 15.4 12.2 8.6 64 3.5 SW 15 20 8 11 1022.4 1022.4 0.2
02/12:30pm 15.4 12.7 9.1 66 3.2 SW 13 19 7 10 1022.6 1022.6 0.2
02/12:00pm 14.5 12.8 9.7 73 2.5 WSW 9 13 5 7 1022.9 1022.9 0.2
02/11:30am 13.8 11.8 10.2 79 1.9 SW 11 17 6 9 1023.0 1023.0 0.2
02/11:00am 14.8 12.6 9.4 70 2.8 NW 11 15 6 8 1023.0 1023.0 0.0
02/10:30am 14.4 12.3 9.8 74 2.4 WNW 11 15 6 8 1022.9 1022.9 0.0
02/10:00am 14.1 11.0 8.9 71 2.6 WSW 15 19 8 10 1022.3 1022.3 0.0
02/09:30am 13.0 10.2 10.0 82 1.5 SSW 15 19 8 10 1022.0 1022.0 0.0
02/09:00am 12.4 8.1 10.6 89 0.9 SW 24 35 13 19 1021.6 1021.6 -
02/08:30am 11.9 8.0 8.7 81 1.6 W 19 26 10 14 1021.1 1021.1 -
02/08:00am 7.6 4.3 6.5 93 0.5 NNW 13 17 7 9 1021.0 1021.0 -
02/07:30am 6.6 4.2 5.4 92 0.5 N 7 9 4 5 1020.4 1020.4 -
02/07:00am 7.3 4.3 6.1 92 0.5 N 11 13 6 7 1020.3 1020.3 -
02/06:30am 7.1 4.8 5.9 92 0.5 N 7 11 4 6 1019.9 1019.9 -
02/06:00am 7.0 4.7 5.6 91 0.6 NNW 7 13 4 7 1019.6 1019.6 -
02/05:30am 6.9 3.4 5.5 91 0.6 NNW 13 17 7 9 1019.4 1019.4 -
02/05:00am 7.3 4.2 5.4 88 0.8 NNW 11 15 6 8 1019.0 1019.0 -
02/04:30am 8.5 5.2 6.5 87 0.9 NNW 13 20 7 11 1018.8 1018.8 -
02/04:00am 8.3 4.6 6.4 88 0.9 NNW 15 19 8 10 1018.5 1018.5 -
02/03:30am 11.3 7.9 7.6 78 1.8 WNW 15 20 8 11 1018.5 1018.5 -
02/03:00am 12.8 8.4 7.5 70 2.6 WSW 20 28 11 15 1018.2 1018.2 -
02/02:30am 12.9 8.3 8.2 73 2.3 W 22 37 12 20 1018.2 1018.2 -
02/02:00am 11.3 7.8 8.7 84 1.3 W 17 24 9 13 1018.2 1018.2 -
02/01:30am 9.2 6.0 7.0 86 1.0 NW 13 17 7 9 1018.1 1018.1 -
02/12:00am 9.9 6.8 7.3 84 1.2 NW 13 19 7 10 1018.0 1018.0 1.2
 
Date/Time
CST
Temp
°C
App
Temp
°C
Dew
Point
°C
Rel
Hum
%
Delta-T
°C
Wind Press
QNH
hPa
Press
MSL
hPa
Rain since
9am
mm
Dir  Spd
km/h
Gust
km/h
Spd
kts
Gust
kts
01/11:30pm 12.1 8.4 7.8 75 2.1 W 17 30 9 16 1018.0 1018.0 1.2
01/11:00pm 13.3 7.9 8.0 70 2.6 WSW 26 32 14 17 1017.8 1017.8 1.2
01/10:30pm 13.5 9.6 9.4 76 2.1 W 20 28 11 15 1017.6 1017.6 1.2
01/10:00pm 12.4 8.8 9.8 84 1.3 WNW 19 26 10 14 1017.5 1017.5 1.2
01/09:30pm 11.8 9.3 9.7 87 1.1 NW 13 19 7 10 1017.3 1017.3 1.2
01/09:00pm 11.7 8.9 9.9 89 0.9 WNW 15 20 8 11 1016.9 1016.9 1.2
01/08:30pm 11.4 9.0 10.0 91 0.7 NW 13 17 7 9 1016.6 1016.6 1.2
01/08:00pm 12.1 9.9 10.7 91 0.7 NW 13 17 7 9 1016.3 1016.3 1.2
01/07:30pm 12.5 9.0 10.2 86 1.2 W 19 26 10 14 1015.9 1015.9 1.2
01/07:00pm 12.8 8.2 10.9 88 1.0 WNW 26 35 14 19 1015.5 1015.5 1.2
01/06:30pm 13.2 10.3 11.1 87 1.1 WNW 17 24 9 13 1015.0 1015.0 0.6
01/06:00pm 13.0 9.2 11.1 88 1.0 WNW 22 28 12 15 1014.4 1014.4 0.6
01/05:30pm 12.8 9.5 11.5 92 0.7 W 20 30 11 16 1014.1 1014.1 0.6
01/05:09pm 13.6 7.5 10.4 81 1.7 W 33 57 18 31 1014.0 1014.0 0.4
01/05:07pm 15.4 9.9 10.6 73 2.5 W 30 57 16 31 1013.8 1013.8 0.0
01/05:00pm 15.7 10.2 10.5 71 2.7 W 30 37 16 20 1013.4 1013.4 0.0
01/04:30pm 15.9 9.7 9.3 65 3.4 W 32 41 17 22 1013.1 1013.1 0.0

Other formats

Comma delimited format used in spreadsheet applications
http://www.bom.gov.au/fwo/IDS60801/IDS60801.94653.axf

JavaScript Object Notation format (JSON) in row-major order
http://www.bom.gov.au/fwo/IDS60801/IDS60801.94653.json

Data quality

Most of these data are generated automatically and are frequently updated. Quality checks on data are not normally performed. It is possible for incorrect values to appear. Refer to information at About Latest Weather Observations and please check the disclaimer before using these data.